EFW50Z LGIR-EGKK
Flight info
| Callsign | EFW50Z |
|---|---|
| Flight time | N/A |
| Altitude | 38000 |
| Route | EPALO1V EPALO M749 DIRMI UM749 ATV DCT BITLA DCT MAVAR DCT GACMO DCT ELTIB DCT RUGOG DCT RIFEN DCT RISOM DCT MOBDO DCT SAFFA DCT ELMUR L613 HOC DCT LUL DCT RLP DCT ROTSI DCT KOTUN/N0443F360 DCT NINAL DCT KESAX DCT KUNAV KUNAV1G |
| Aircraft | A320/M-SDE3FGIJ1KRWXY/S |
Departure
| Time | 2026-04-29 16:16 |
|---|---|
| Airport | Heraklion International Nikos Kazantzakis Airport (LGIR) |
Arrival
| Time | N/A |
|---|---|
| Airport | London Gatwick Airport (EGKK) |
| Time | Latitude | Longitude | Altitude | Speed | Heading |
|---|---|---|---|---|---|
| 2026-04-29 15:15 | 35.33863 | 25.17667 | 91 ft | 0 kts | 314° |
| 2026-04-29 16:09 | 35.33873 | 25.17660 | 91 ft | 4 kts | 339° |
| 2026-04-29 16:10 | 35.33898 | 25.17690 | 94 ft | 6 kts | 81° |
| 2026-04-29 16:10 | 35.33895 | 25.17744 | 92 ft | 7 kts | 94° |
| 2026-04-29 16:10 | 35.33891 | 25.17807 | 92 ft | 8 kts | 94° |
| 2026-04-29 16:10 | 35.33885 | 25.17882 | 95 ft | 10 kts | 95° |
| 2026-04-29 16:11 | 35.33879 | 25.17971 | 91 ft | 11 kts | 95° |
| 2026-04-29 16:11 | 35.33872 | 25.18072 | 92 ft | 12 kts | 95° |
| 2026-04-29 16:11 | 35.33864 | 25.18179 | 93 ft | 13 kts | 92° |
| 2026-04-29 16:11 | 35.33857 | 25.18295 | 92 ft | 15 kts | 95° |
| 2026-04-29 16:12 | 35.33848 | 25.18420 | 90 ft | 12 kts | 95° |
| 2026-04-29 16:12 | 35.33843 | 25.18489 | 90 ft | 13 kts | 95° |
| 2026-04-29 16:12 | 35.33833 | 25.18633 | 90 ft | 9 kts | 95° |
| 2026-04-29 16:12 | 35.33829 | 25.18689 | 90 ft | 6 kts | 95° |
| 2026-04-29 16:13 | 35.33826 | 25.18743 | 90 ft | 7 kts | 95° |
| 2026-04-29 16:13 | 35.33821 | 25.18809 | 90 ft | 9 kts | 95° |
| 2026-04-29 16:13 | 35.33815 | 25.18889 | 90 ft | 10 kts | 95° |
| 2026-04-29 16:13 | 35.33843 | 25.18971 | 92 ft | 12 kts | 57° |
| 2026-04-29 16:14 | 35.33881 | 25.19054 | 89 ft | 7 kts | 60° |
| 2026-04-29 16:14 | 35.33907 | 25.19037 | 90 ft | 6 kts | 276° |
| 2026-04-29 16:14 | 35.33907 | 25.19010 | 88 ft | 0 kts | 274° |
| 2026-04-29 16:15 | 35.33908 | 25.19009 | 88 ft | 1 kts | 274° |
| 2026-04-29 16:15 | 35.33913 | 25.18923 | 91 ft | 35 kts | 275° |
| 2026-04-29 16:15 | 35.33954 | 25.18333 | 93 ft | 101 kts | 275° |
| 2026-04-29 16:15 | 35.34028 | 25.17258 | 94 ft | 151 kts | 275° |
| 2026-04-29 16:16 | 35.34122 | 25.15939 | 601 ft | 151 kts | 276° |
| 2026-04-29 16:16 | 35.34403 | 25.14705 | 1103 ft | 158 kts | 310° |
| 2026-04-29 16:16 | 35.35347 | 25.13963 | 1350 ft | 175 kts | 346° |
| 2026-04-29 16:16 | 35.36599 | 25.13610 | 1522 ft | 197 kts | 345° |
| 2026-04-29 16:17 | 35.37996 | 25.13147 | 1769 ft | 216 kts | 345° |
| 2026-04-29 16:17 | 35.39517 | 25.12616 | 2065 ft | 239 kts | 344° |
| 2026-04-29 16:17 | 35.41148 | 25.12014 | 2608 ft | 253 kts | 345° |
| 2026-04-29 16:17 | 35.42880 | 25.11392 | 3387 ft | 258 kts | 345° |
| 2026-04-29 16:18 | 35.44591 | 25.10775 | 4188 ft | 261 kts | 343° |
| 2026-04-29 16:18 | 35.46330 | 25.10143 | 5020 ft | 262 kts | 344° |
| 2026-04-29 16:18 | 35.48086 | 25.09506 | 5829 ft | 265 kts | 343° |
| 2026-04-29 16:18 | 35.49866 | 25.08864 | 6597 ft | 268 kts | 344° |
| 2026-04-29 16:19 | 35.51665 | 25.08218 | 7327 ft | 271 kts | 344° |
| 2026-04-29 16:19 | 35.53491 | 25.07561 | 8085 ft | 274 kts | 343° |
| 2026-04-29 16:19 | 35.55322 | 25.06901 | 8844 ft | 276 kts | 343° |
| 2026-04-29 16:19 | 35.57172 | 25.06236 | 9574 ft | 279 kts | 344° |
| 2026-04-29 16:20 | 35.59041 | 25.05563 | 10255 ft | 283 kts | 343° |
| 2026-04-29 16:20 | 35.60999 | 25.04857 | 10450 ft | 304 kts | 343° |
| 2026-04-29 16:20 | 35.63097 | 25.04100 | 10580 ft | 325 kts | 343° |
| 2026-04-29 16:20 | 35.65324 | 25.03292 | 10900 ft | 338 kts | 343° |
| 2026-04-29 16:21 | 35.67596 | 25.02469 | 11453 ft | 342 kts | 343° |
| 2026-04-29 16:21 | 35.69893 | 25.01638 | 12052 ft | 346 kts | 343° |
| 2026-04-29 16:21 | 35.72204 | 25.00778 | 12646 ft | 349 kts | 341° |
| 2026-04-29 16:21 | 35.74517 | 24.99790 | 13228 ft | 353 kts | 339° |
| 2026-04-29 16:22 | 35.76818 | 24.98708 | 13833 ft | 356 kts | 338° |
| 2026-04-29 16:22 | 35.79132 | 24.97576 | 14368 ft | 359 kts | 337° |
| 2026-04-29 16:22 | 35.81463 | 24.96428 | 14908 ft | 362 kts | 337° |
| 2026-04-29 16:22 | 35.83808 | 24.95288 | 15428 ft | 364 kts | 337° |
| 2026-04-29 16:23 | 35.86149 | 24.94164 | 15951 ft | 367 kts | 337° |
| 2026-04-29 16:23 | 35.88573 | 24.93017 | 16285 ft | 369 kts | 338° |
| 2026-04-29 16:23 | 35.90970 | 24.91888 | 16553 ft | 369 kts | 338° |
| 2026-04-29 16:23 | 35.93352 | 24.90768 | 17012 ft | 372 kts | 338° |
| 2026-04-29 16:24 | 35.95785 | 24.89625 | 17550 ft | 375 kts | 338° |
| 2026-04-29 16:24 | 35.98228 | 24.88479 | 18118 ft | 377 kts | 337° |
| 2026-04-29 16:24 | 36.00688 | 24.87322 | 18629 ft | 380 kts | 337° |
| 2026-04-29 16:24 | 36.03163 | 24.86151 | 19124 ft | 383 kts | 337° |
| 2026-04-29 16:25 | 36.05657 | 24.84966 | 19626 ft | 385 kts | 337° |
| 2026-04-29 16:25 | 36.08167 | 24.83771 | 20144 ft | 388 kts | 337° |
| 2026-04-29 16:25 | 36.10696 | 24.82570 | 20646 ft | 390 kts | 337° |
| 2026-04-29 16:25 | 36.13238 | 24.81365 | 21115 ft | 393 kts | 337° |
| 2026-04-29 16:26 | 36.15800 | 24.80152 | 21565 ft | 395 kts | 337° |
| 2026-04-29 16:26 | 36.18379 | 24.78931 | 22000 ft | 398 kts | 337° |
| 2026-04-29 16:26 | 36.20974 | 24.77697 | 22430 ft | 400 kts | 337° |
| 2026-04-29 16:26 | 36.23582 | 24.76451 | 22841 ft | 403 kts | 337° |
| 2026-04-29 16:27 | 36.26210 | 24.75197 | 23227 ft | 406 kts | 337° |
| 2026-04-29 16:27 | 36.28855 | 24.73940 | 23627 ft | 409 kts | 337° |
| 2026-04-29 16:27 | 36.31523 | 24.72673 | 23965 ft | 411 kts | 337° |
| 2026-04-29 16:27 | 36.34197 | 24.71404 | 24310 ft | 413 kts | 337° |
| 2026-04-29 16:28 | 36.36882 | 24.70125 | 24659 ft | 414 kts | 336° |
| 2026-04-29 16:28 | 36.39580 | 24.68837 | 24998 ft | 416 kts | 336° |
| 2026-04-29 16:28 | 36.42290 | 24.67546 | 25332 ft | 417 kts | 336° |
| 2026-04-29 16:28 | 36.45002 | 24.66250 | 25657 ft | 419 kts | 336° |
| 2026-04-29 16:29 | 36.47721 | 24.64949 | 25981 ft | 420 kts | 336° |
| 2026-04-29 16:29 | 36.50455 | 24.63638 | 26262 ft | 422 kts | 336° |
| 2026-04-29 16:29 | 36.53204 | 24.62316 | 26554 ft | 424 kts | 336° |
| 2026-04-29 16:29 | 36.55963 | 24.60986 | 26871 ft | 426 kts | 336° |
| 2026-04-29 16:30 | 36.58736 | 24.59652 | 27185 ft | 428 kts | 336° |
| 2026-04-29 16:30 | 36.61514 | 24.58316 | 27539 ft | 428 kts | 336° |
| 2026-04-29 16:30 | 36.64290 | 24.56983 | 27991 ft | 426 kts | 336° |
| 2026-04-29 16:30 | 36.67052 | 24.55657 | 28439 ft | 424 kts | 336° |
| 2026-04-29 16:31 | 36.69807 | 24.54332 | 28896 ft | 423 kts | 336° |
| 2026-04-29 16:31 | 36.72516 | 24.53029 | 29338 ft | 422 kts | 336° |
| 2026-04-29 16:31 | 36.75229 | 24.51656 | 29756 ft | 421 kts | 332° |
| 2026-04-29 16:31 | 36.77845 | 24.50042 | 30179 ft | 419 kts | 332° |
| 2026-04-29 16:32 | 36.80455 | 24.48428 | 30542 ft | 418 kts | 331° |
| 2026-04-29 16:32 | 36.83061 | 24.46817 | 30915 ft | 417 kts | 331° |
| 2026-04-29 16:32 | 36.85661 | 24.45212 | 31295 ft | 416 kts | 332° |
| 2026-04-29 16:32 | 36.88256 | 24.43615 | 31673 ft | 415 kts | 331° |
| 2026-04-29 16:33 | 36.93417 | 24.40428 | 32434 ft | 412 kts | 331° |
| 2026-04-29 16:33 | 36.95981 | 24.38841 | 32806 ft | 411 kts | 331° |
| 2026-04-29 16:33 | 36.98541 | 24.37254 | 33206 ft | 410 kts | 332° |
| 2026-04-29 16:34 | 37.01099 | 24.35664 | 33546 ft | 410 kts | 331° |
| 2026-04-29 16:34 | 37.03651 | 24.34077 | 33905 ft | 409 kts | 331° |
| 2026-04-29 16:34 | 37.06191 | 24.32500 | 34226 ft | 408 kts | 331° |
| 2026-04-29 16:34 | 37.08728 | 24.30921 | 34507 ft | 407 kts | 331° |
| 2026-04-29 16:35 | 37.11262 | 24.29340 | 34772 ft | 406 kts | 331° |
| 2026-04-29 16:35 | 37.13790 | 24.27764 | 35028 ft | 406 kts | 331° |
| 2026-04-29 16:35 | 37.16315 | 24.26189 | 35275 ft | 405 kts | 331° |
| 2026-04-29 16:35 | 37.18835 | 24.24622 | 35528 ft | 404 kts | 330° |
| 2026-04-29 16:36 | 37.21354 | 24.23053 | 35768 ft | 404 kts | 330° |
| 2026-04-29 16:36 | 37.23871 | 24.21483 | 36012 ft | 404 kts | 330° |
| 2026-04-29 16:36 | 37.26383 | 24.19913 | 36213 ft | 404 kts | 330° |
| 2026-04-29 16:36 | 37.28902 | 24.18336 | 36419 ft | 404 kts | 330° |
| 2026-04-29 16:37 | 37.31411 | 24.16766 | 36627 ft | 403 kts | 330° |
| 2026-04-29 16:37 | 37.33924 | 24.15191 | 36826 ft | 403 kts | 330° |
| 2026-04-29 16:37 | 37.36431 | 24.13618 | 37023 ft | 403 kts | 330° |
| 2026-04-29 16:37 | 37.38092 | 24.12573 | 37145 ft | 402 kts | 330° |
| 2026-04-29 16:38 | 37.41441 | 24.10470 | 37397 ft | 402 kts | 330° |
| 2026-04-29 16:38 | 37.43942 | 24.08901 | 37571 ft | 401 kts | 330° |
| 2026-04-29 16:38 | 37.45852 | 24.07725 | 37690 ft | 401 kts | 330° |
| 2026-04-29 16:38 | 37.48264 | 24.06239 | 37815 ft | 401 kts | 330° |
| 2026-04-29 16:39 | 37.50662 | 24.04724 | 38015 ft | 400 kts | 330° |
| 2026-04-29 16:39 | 37.53063 | 24.03190 | 38077 ft | 402 kts | 330° |
| 2026-04-29 16:39 | 37.57896 | 24.00100 | 38078 ft | 406 kts | 330° |
| 2026-04-29 16:40 | 37.62730 | 23.97036 | 38079 ft | 407 kts | 330° |
| 2026-04-29 16:40 | 37.67600 | 23.93959 | 38083 ft | 407 kts | 330° |
| 2026-04-29 16:41 | 37.72424 | 23.90911 | 38081 ft | 407 kts | 330° |
| 2026-04-29 16:41 | 37.76908 | 23.88059 | 38096 ft | 407 kts | 330° |
| 2026-04-29 16:42 | 37.81774 | 23.84968 | 38095 ft | 408 kts | 330° |
| 2026-04-29 16:42 | 37.86655 | 23.81863 | 38095 ft | 408 kts | 330° |
| 2026-04-29 16:43 | 37.91492 | 23.78654 | 38096 ft | 407 kts | 327° |
| 2026-04-29 16:43 | 37.96135 | 23.75012 | 38096 ft | 406 kts | 324° |
| 2026-04-29 16:44 | 38.00884 | 23.71129 | 38085 ft | 407 kts | 325° |
| 2026-04-29 16:44 | 38.05590 | 23.67377 | 38077 ft | 407 kts | 326° |
| 2026-04-29 16:45 | 38.10418 | 23.63596 | 38076 ft | 408 kts | 326° |
| 2026-04-29 16:45 | 38.14436 | 23.60460 | 38075 ft | 408 kts | 326° |
| 2026-04-29 16:46 | 38.19270 | 23.56682 | 38075 ft | 407 kts | 326° |
| 2026-04-29 16:46 | 38.24089 | 23.52893 | 38073 ft | 407 kts | 326° |
| 2026-04-29 16:47 | 38.28905 | 23.49089 | 38072 ft | 408 kts | 326° |
| 2026-04-29 16:47 | 38.33729 | 23.45292 | 38073 ft | 407 kts | 326° |
| 2026-04-29 16:48 | 38.38543 | 23.41479 | 38074 ft | 408 kts | 325° |
| 2026-04-29 16:48 | 38.43364 | 23.37649 | 38074 ft | 408 kts | 326° |
| 2026-04-29 16:49 | 38.48184 | 23.33830 | 38068 ft | 408 kts | 326° |
| 2026-04-29 16:49 | 38.53006 | 23.29998 | 38065 ft | 408 kts | 325° |
| 2026-04-29 16:50 | 38.57839 | 23.26155 | 38066 ft | 409 kts | 325° |
| 2026-04-29 16:50 | 38.62665 | 23.22307 | 38065 ft | 409 kts | 325° |
| 2026-04-29 16:51 | 38.67457 | 23.18477 | 38064 ft | 409 kts | 325° |
| 2026-04-29 16:51 | 38.72292 | 23.14614 | 38063 ft | 409 kts | 325° |
| 2026-04-29 16:52 | 38.77117 | 23.10757 | 38064 ft | 409 kts | 325° |
| 2026-04-29 16:52 | 38.81946 | 23.06879 | 38071 ft | 409 kts | 325° |
| 2026-04-29 16:53 | 38.86761 | 23.03005 | 38074 ft | 409 kts | 325° |
| 2026-04-29 16:53 | 38.91590 | 22.99125 | 38071 ft | 409 kts | 325° |
| 2026-04-29 16:54 | 38.96418 | 22.95242 | 38068 ft | 409 kts | 325° |
| 2026-04-29 16:54 | 39.01247 | 22.91338 | 38064 ft | 409 kts | 325° |
| 2026-04-29 16:55 | 39.06063 | 22.87433 | 38068 ft | 410 kts | 325° |
| 2026-04-29 16:55 | 39.10891 | 22.83529 | 38058 ft | 409 kts | 325° |
| 2026-04-29 16:56 | 39.15710 | 22.79618 | 38057 ft | 409 kts | 325° |
| 2026-04-29 16:56 | 39.20527 | 22.75707 | 38047 ft | 409 kts | 325° |
| 2026-04-29 16:57 | 39.25347 | 22.71784 | 38046 ft | 410 kts | 325° |
| 2026-04-29 16:57 | 39.30141 | 22.67865 | 38071 ft | 410 kts | 325° |
| 2026-04-29 16:58 | 39.34954 | 22.63928 | 38060 ft | 409 kts | 325° |
| 2026-04-29 16:58 | 39.39761 | 22.60011 | 38065 ft | 409 kts | 325° |
| 2026-04-29 16:59 | 39.44568 | 22.56079 | 38051 ft | 408 kts | 325° |
| 2026-04-29 16:59 | 39.49372 | 22.52143 | 38049 ft | 408 kts | 325° |
| 2026-04-29 17:00 | 39.54160 | 22.48208 | 38066 ft | 407 kts | 325° |
| 2026-04-29 17:00 | 39.58943 | 22.44269 | 38053 ft | 407 kts | 324° |
| 2026-04-29 17:01 | 39.63720 | 22.40318 | 38052 ft | 407 kts | 324° |
| 2026-04-29 17:01 | 39.68498 | 22.36363 | 38049 ft | 408 kts | 324° |
| 2026-04-29 17:02 | 39.73256 | 22.32426 | 38048 ft | 408 kts | 324° |
| 2026-04-29 17:02 | 39.78040 | 22.28452 | 38047 ft | 408 kts | 324° |
| 2026-04-29 17:03 | 39.82826 | 22.24477 | 38057 ft | 408 kts | 324° |
| 2026-04-29 17:03 | 39.87614 | 22.20499 | 38062 ft | 408 kts | 324° |
| 2026-04-29 17:04 | 39.92392 | 22.16511 | 38059 ft | 407 kts | 324° |
| 2026-04-29 17:04 | 39.97162 | 22.12523 | 38066 ft | 407 kts | 324° |
| 2026-04-29 17:05 | 40.01927 | 22.08541 | 38061 ft | 406 kts | 324° |
| 2026-04-29 17:05 | 40.06691 | 22.04567 | 38060 ft | 406 kts | 324° |
| 2026-04-29 17:06 | 40.11441 | 22.00588 | 38078 ft | 405 kts | 324° |
| 2026-04-29 17:06 | 40.16182 | 21.96603 | 38071 ft | 405 kts | 324° |
| 2026-04-29 17:07 | 40.20915 | 21.92600 | 38072 ft | 405 kts | 324° |
| 2026-04-29 17:07 | 40.25651 | 21.88607 | 38078 ft | 405 kts | 324° |
| 2026-04-29 17:08 | 40.30385 | 21.84610 | 38094 ft | 405 kts | 324° |
| 2026-04-29 17:08 | 40.35122 | 21.80605 | 38083 ft | 404 kts | 324° |
| 2026-04-29 17:09 | 40.39818 | 21.76620 | 38060 ft | 404 kts | 324° |
| 2026-04-29 17:09 | 40.44548 | 21.72604 | 38056 ft | 404 kts | 324° |
| 2026-04-29 17:10 | 40.49278 | 21.68595 | 38053 ft | 405 kts | 324° |
| 2026-04-29 17:10 | 40.53999 | 21.64573 | 38069 ft | 405 kts | 324° |
| 2026-04-29 17:11 | 40.58718 | 21.60539 | 38056 ft | 404 kts | 324° |
| 2026-04-29 17:11 | 40.63433 | 21.56518 | 38053 ft | 403 kts | 324° |
| 2026-04-29 17:12 | 40.68142 | 21.52489 | 38046 ft | 404 kts | 324° |
| 2026-04-29 17:12 | 40.72055 | 21.49127 | 38045 ft | 403 kts | 323° |
| 2026-04-29 17:13 | 40.77531 | 21.44429 | 38042 ft | 404 kts | 324° |
| 2026-04-29 17:13 | 40.82239 | 21.40387 | 38043 ft | 404 kts | 324° |
| 2026-04-29 17:14 | 40.86949 | 21.36318 | 38040 ft | 404 kts | 323° |
| 2026-04-29 17:14 | 40.91497 | 21.31997 | 38038 ft | 402 kts | 319° |
| 2026-04-29 17:15 | 40.95868 | 21.27385 | 38038 ft | 401 kts | 318° |
| 2026-04-29 17:15 | 41.00221 | 21.22764 | 38047 ft | 402 kts | 319° |
| 2026-04-29 17:16 | 41.04622 | 21.18198 | 38058 ft | 402 kts | 319° |
| 2026-04-29 17:16 | 41.09050 | 21.13660 | 38054 ft | 401 kts | 320° |
| 2026-04-29 17:17 | 41.13460 | 21.09115 | 38055 ft | 401 kts | 319° |
| 2026-04-29 17:17 | 41.17861 | 21.04542 | 38058 ft | 402 kts | 319° |
| 2026-04-29 17:18 | 41.22263 | 20.99962 | 38067 ft | 402 kts | 319° |
| 2026-04-29 17:18 | 41.26677 | 20.95370 | 38071 ft | 403 kts | 319° |
| 2026-04-29 17:19 | 41.31082 | 20.90774 | 38085 ft | 402 kts | 319° |
| 2026-04-29 17:19 | 41.35455 | 20.86218 | 38079 ft | 402 kts | 319° |
| 2026-04-29 17:20 | 41.39843 | 20.81622 | 38075 ft | 401 kts | 319° |
| 2026-04-29 17:20 | 41.44221 | 20.77021 | 38073 ft | 401 kts | 319° |
| 2026-04-29 17:21 | 41.48599 | 20.72429 | 38072 ft | 400 kts | 319° |
| 2026-04-29 17:21 | 41.52975 | 20.67833 | 38070 ft | 400 kts | 319° |
| 2026-04-29 17:22 | 41.57337 | 20.63231 | 38090 ft | 399 kts | 319° |
| 2026-04-29 17:22 | 41.61675 | 20.58640 | 38083 ft | 397 kts | 318° |
| 2026-04-29 17:23 | 41.66004 | 20.54042 | 38083 ft | 398 kts | 318° |
| 2026-04-29 17:23 | 41.70045 | 20.49026 | 38079 ft | 395 kts | 313° |
| 2026-04-29 17:24 | 41.73998 | 20.43906 | 38078 ft | 396 kts | 313° |
| 2026-04-29 17:24 | 41.77931 | 20.38816 | 38079 ft | 396 kts | 313° |
| 2026-04-29 17:25 | 41.81886 | 20.33694 | 38101 ft | 395 kts | 313° |
| 2026-04-29 17:25 | 41.85832 | 20.28551 | 38092 ft | 395 kts | 312° |
| 2026-04-29 17:26 | 41.89760 | 20.23418 | 38080 ft | 394 kts | 313° |
| 2026-04-29 17:26 | 41.93690 | 20.18278 | 38076 ft | 394 kts | 313° |
| 2026-04-29 17:27 | 41.97618 | 20.13143 | 38065 ft | 394 kts | 312° |
| 2026-04-29 17:27 | 42.01540 | 20.07998 | 38065 ft | 394 kts | 313° |
| 2026-04-29 17:28 | 42.05464 | 20.02837 | 38092 ft | 394 kts | 313° |
| 2026-04-29 17:28 | 42.09378 | 19.97678 | 38082 ft | 393 kts | 312° |
| 2026-04-29 17:29 | 42.13276 | 19.92518 | 38075 ft | 393 kts | 312° |
| 2026-04-29 17:29 | 42.16519 | 19.88226 | 38074 ft | 393 kts | 313° |
| 2026-04-29 17:30 | 42.21055 | 19.82230 | 38073 ft | 393 kts | 312° |
| 2026-04-29 17:30 | 42.24959 | 19.77046 | 38075 ft | 393 kts | 312° |
| 2026-04-29 17:31 | 42.28854 | 19.71860 | 38081 ft | 393 kts | 312° |
| 2026-04-29 17:31 | 42.32744 | 19.66676 | 38086 ft | 392 kts | 312° |
| 2026-04-29 17:32 | 42.35969 | 19.62379 | 38060 ft | 391 kts | 312° |
| 2026-04-29 17:32 | 42.39845 | 19.57211 | 38066 ft | 391 kts | 312° |
| 2026-04-29 17:33 | 42.43706 | 19.52028 | 38062 ft | 390 kts | 311° |
| 2026-04-29 17:33 | 42.47556 | 19.46857 | 38060 ft | 390 kts | 312° |
| 2026-04-29 17:34 | 42.51412 | 19.41674 | 38050 ft | 390 kts | 312° |
| 2026-04-29 17:34 | 42.55260 | 19.36496 | 38045 ft | 390 kts | 312° |
| 2026-04-29 17:35 | 42.61028 | 19.28713 | 38070 ft | 389 kts | 312° |
| 2026-04-29 17:36 | 42.64837 | 19.23560 | 38059 ft | 388 kts | 311° |
| 2026-04-29 17:36 | 42.68663 | 19.18379 | 38071 ft | 388 kts | 312° |
| 2026-04-29 17:37 | 42.72487 | 19.13185 | 38072 ft | 388 kts | 312° |
| 2026-04-29 17:37 | 42.76305 | 19.07994 | 38050 ft | 388 kts | 312° |
| 2026-04-29 17:38 | 42.80130 | 19.02788 | 38055 ft | 389 kts | 312° |
| 2026-04-29 17:38 | 42.83954 | 18.97564 | 38084 ft | 389 kts | 312° |
| 2026-04-29 17:39 | 42.87770 | 18.92339 | 38077 ft | 389 kts | 311° |
| 2026-04-29 17:39 | 42.91590 | 18.87105 | 38078 ft | 388 kts | 311° |
| 2026-04-29 17:40 | 42.95398 | 18.81879 | 38077 ft | 388 kts | 311° |
| 2026-04-29 17:40 | 42.99180 | 18.76679 | 38087 ft | 388 kts | 311° |
| 2026-04-29 17:41 | 43.02982 | 18.71439 | 38090 ft | 388 kts | 311° |
| 2026-04-29 17:41 | 43.06774 | 18.66197 | 38091 ft | 388 kts | 311° |
| 2026-04-29 17:42 | 43.10564 | 18.60950 | 38105 ft | 388 kts | 311° |
| 2026-04-29 17:42 | 43.14353 | 18.55700 | 38097 ft | 387 kts | 311° |
| 2026-04-29 17:43 | 43.18069 | 18.50386 | 38093 ft | 386 kts | 310° |
| 2026-04-29 17:43 | 43.21728 | 18.44998 | 38093 ft | 386 kts | 310° |
| 2026-04-29 17:44 | 43.25379 | 18.39619 | 38103 ft | 385 kts | 309° |
| 2026-04-29 17:44 | 43.29038 | 18.34244 | 38100 ft | 385 kts | 310° |
| 2026-04-29 17:45 | 43.32702 | 18.28875 | 38094 ft | 385 kts | 309° |
| 2026-04-29 17:45 | 43.36337 | 18.23535 | 38086 ft | 385 kts | 309° |
| 2026-04-29 17:46 | 43.39991 | 18.18156 | 38085 ft | 385 kts | 309° |
| 2026-04-29 17:46 | 43.43638 | 18.12774 | 38081 ft | 384 kts | 309° |
| 2026-04-29 17:47 | 43.47282 | 18.07384 | 38078 ft | 384 kts | 309° |
| 2026-04-29 17:47 | 43.50918 | 18.01989 | 38079 ft | 384 kts | 309° |
| 2026-04-29 17:48 | 43.54553 | 17.96589 | 38087 ft | 384 kts | 309° |
| 2026-04-29 17:48 | 43.58187 | 17.91181 | 38124 ft | 385 kts | 309° |
| 2026-04-29 17:49 | 43.61820 | 17.85778 | 38120 ft | 384 kts | 309° |
| 2026-04-29 17:49 | 43.65421 | 17.80409 | 38111 ft | 383 kts | 309° |
| 2026-04-29 17:50 | 43.69031 | 17.74994 | 38105 ft | 382 kts | 309° |
| 2026-04-29 17:50 | 43.72641 | 17.69575 | 38106 ft | 383 kts | 309° |
| 2026-04-29 17:51 | 43.76256 | 17.64152 | 38109 ft | 384 kts | 309° |
| 2026-04-29 17:51 | 43.79874 | 17.58716 | 38133 ft | 384 kts | 309° |
| 2026-04-29 17:52 | 43.83487 | 17.53274 | 38161 ft | 384 kts | 309° |
| 2026-04-29 17:52 | 43.87095 | 17.47825 | 38135 ft | 383 kts | 309° |
| 2026-04-29 17:53 | 43.90696 | 17.42367 | 38146 ft | 383 kts | 309° |
| 2026-04-29 17:53 | 43.94294 | 17.36911 | 38143 ft | 383 kts | 309° |
| 2026-04-29 17:54 | 43.97867 | 17.31477 | 38142 ft | 384 kts | 309° |
| 2026-04-29 17:54 | 44.01488 | 17.25968 | 38158 ft | 384 kts | 309° |
| 2026-04-29 17:55 | 44.05092 | 17.20485 | 38158 ft | 384 kts | 309° |
| 2026-04-29 17:55 | 44.08693 | 17.14993 | 38194 ft | 384 kts | 309° |
| 2026-04-29 17:56 | 44.12287 | 17.09483 | 38184 ft | 385 kts | 309° |
| 2026-04-29 17:56 | 44.15862 | 17.03996 | 38178 ft | 385 kts | 309° |
| 2026-04-29 17:57 | 44.19456 | 16.98465 | 38185 ft | 385 kts | 309° |
| 2026-04-29 17:57 | 44.23051 | 16.92925 | 38175 ft | 385 kts | 309° |
| 2026-04-29 17:58 | 44.26644 | 16.87393 | 38177 ft | 385 kts | 309° |
| 2026-04-29 17:58 | 44.30238 | 16.81838 | 38190 ft | 385 kts | 309° |
| 2026-04-29 17:59 | 44.33861 | 16.76319 | 38212 ft | 385 kts | 310° |
| 2026-04-29 17:59 | 44.37515 | 16.70848 | 38200 ft | 385 kts | 310° |
| 2026-04-29 18:00 | 44.41169 | 16.65365 | 38190 ft | 386 kts | 310° |
| 2026-04-29 18:00 | 44.44823 | 16.59855 | 38190 ft | 386 kts | 309° |
| 2026-04-29 18:01 | 44.48458 | 16.54325 | 38185 ft | 386 kts | 309° |
| 2026-04-29 18:01 | 44.52102 | 16.48774 | 38202 ft | 387 kts | 309° |
| 2026-04-29 18:02 | 44.55729 | 16.43254 | 38195 ft | 387 kts | 309° |
| 2026-04-29 18:02 | 44.59378 | 16.37702 | 38233 ft | 387 kts | 309° |
| 2026-04-29 18:03 | 44.63026 | 16.32143 | 38223 ft | 387 kts | 309° |
| 2026-04-29 18:03 | 44.66665 | 16.26569 | 38219 ft | 387 kts | 309° |
| 2026-04-29 18:04 | 44.70291 | 16.20985 | 38224 ft | 387 kts | 309° |
| 2026-04-29 18:04 | 44.73923 | 16.15401 | 38227 ft | 387 kts | 309° |
| 2026-04-29 18:05 | 44.77565 | 16.09806 | 38205 ft | 387 kts | 309° |
| 2026-04-29 18:05 | 44.81200 | 16.04202 | 38219 ft | 388 kts | 309° |
| 2026-04-29 18:06 | 44.84836 | 15.98572 | 38254 ft | 388 kts | 309° |
| 2026-04-29 18:06 | 44.88472 | 15.92938 | 38246 ft | 388 kts | 309° |
| 2026-04-29 18:07 | 44.92103 | 15.87291 | 38248 ft | 388 kts | 309° |
| 2026-04-29 18:07 | 44.95732 | 15.81643 | 38245 ft | 388 kts | 309° |
| 2026-04-29 18:08 | 44.99359 | 15.76001 | 38242 ft | 388 kts | 309° |
| 2026-04-29 18:08 | 45.02996 | 15.70336 | 38248 ft | 389 kts | 309° |
| 2026-04-29 18:09 | 45.06616 | 15.64663 | 38250 ft | 389 kts | 309° |
| 2026-04-29 18:09 | 45.10230 | 15.58988 | 38268 ft | 389 kts | 309° |
| 2026-04-29 18:10 | 45.13847 | 15.53309 | 38259 ft | 388 kts | 309° |
| 2026-04-29 18:10 | 45.17442 | 15.47648 | 38244 ft | 388 kts | 309° |
| 2026-04-29 18:11 | 45.21051 | 15.41950 | 38255 ft | 388 kts | 309° |
| 2026-04-29 18:11 | 45.24657 | 15.36254 | 38255 ft | 388 kts | 309° |
| 2026-04-29 18:12 | 45.28053 | 15.30332 | 38249 ft | 385 kts | 299° |
| 2026-04-29 18:12 | 45.30439 | 15.23537 | 38253 ft | 385 kts | 295° |
| 2026-04-29 18:13 | 45.32778 | 15.16693 | 38246 ft | 386 kts | 295° |
| 2026-04-29 18:13 | 45.35133 | 15.09827 | 38246 ft | 386 kts | 295° |
| 2026-04-29 18:14 | 45.37456 | 15.03019 | 38271 ft | 386 kts | 295° |
| 2026-04-29 18:14 | 45.39788 | 14.96142 | 38241 ft | 385 kts | 295° |
| 2026-04-29 18:15 | 45.42111 | 14.89272 | 38198 ft | 386 kts | 295° |
| 2026-04-29 18:15 | 45.44441 | 14.82386 | 38202 ft | 386 kts | 295° |
| 2026-04-29 18:16 | 45.46765 | 14.75494 | 38193 ft | 386 kts | 295° |
| 2026-04-29 18:16 | 45.49082 | 14.68594 | 38196 ft | 386 kts | 295° |
| 2026-04-29 18:17 | 45.51399 | 14.61682 | 38187 ft | 386 kts | 295° |
| 2026-04-29 18:17 | 45.53712 | 14.54760 | 38192 ft | 387 kts | 295° |
| 2026-04-29 18:18 | 45.56022 | 14.47822 | 38188 ft | 387 kts | 295° |
| 2026-04-29 18:18 | 45.58320 | 14.40922 | 38214 ft | 387 kts | 295° |
| 2026-04-29 18:19 | 45.60626 | 14.33971 | 38197 ft | 388 kts | 295° |
| 2026-04-29 18:19 | 45.62928 | 14.27008 | 38203 ft | 388 kts | 295° |
| 2026-04-29 18:20 | 45.65228 | 14.20027 | 38177 ft | 388 kts | 294° |
| 2026-04-29 18:20 | 45.67522 | 14.13048 | 38181 ft | 388 kts | 295° |
| 2026-04-29 18:21 | 45.69442 | 14.07205 | 38168 ft | 387 kts | 294° |
| 2026-04-29 18:21 | 45.71714 | 14.00268 | 38198 ft | 388 kts | 294° |
| 2026-04-29 18:22 | 45.74001 | 13.93272 | 38179 ft | 389 kts | 294° |
| 2026-04-29 18:22 | 45.76295 | 13.86237 | 38171 ft | 390 kts | 294° |
| 2026-04-29 18:23 | 45.78583 | 13.79194 | 38153 ft | 390 kts | 295° |
| 2026-04-29 18:23 | 45.80870 | 13.72128 | 38151 ft | 390 kts | 294° |
| 2026-04-29 18:24 | 45.83147 | 13.65066 | 38149 ft | 391 kts | 294° |
| 2026-04-29 18:24 | 45.85428 | 13.57996 | 38148 ft | 391 kts | 295° |
| 2026-04-29 18:25 | 45.87819 | 13.50988 | 38133 ft | 391 kts | 296° |
| 2026-04-29 18:25 | 45.90284 | 13.44033 | 38128 ft | 391 kts | 296° |
| 2026-04-29 18:26 | 45.92740 | 13.37045 | 38134 ft | 392 kts | 296° |
| 2026-04-29 18:26 | 45.95169 | 13.30035 | 38141 ft | 392 kts | 296° |
| 2026-04-29 18:27 | 45.97592 | 13.22996 | 38142 ft | 393 kts | 296° |
| 2026-04-29 18:27 | 46.00014 | 13.15942 | 38138 ft | 393 kts | 296° |
| 2026-04-29 18:28 | 46.02433 | 13.08870 | 38136 ft | 394 kts | 296° |
| 2026-04-29 18:28 | 46.04843 | 13.01821 | 38149 ft | 395 kts | 296° |
| 2026-04-29 18:29 | 46.07259 | 12.94717 | 38150 ft | 395 kts | 295° |
| 2026-04-29 18:29 | 46.09570 | 12.87533 | 38152 ft | 395 kts | 294° |
| 2026-04-29 18:30 | 46.11823 | 12.80290 | 38155 ft | 396 kts | 294° |
| 2026-04-29 18:30 | 46.14087 | 12.73040 | 38157 ft | 396 kts | 294° |
| 2026-04-29 18:31 | 46.16361 | 12.65783 | 38162 ft | 398 kts | 294° |
| 2026-04-29 18:31 | 46.18636 | 12.58508 | 38162 ft | 398 kts | 294° |
| 2026-04-29 18:32 | 46.20916 | 12.51212 | 38166 ft | 398 kts | 294° |
| 2026-04-29 18:32 | 46.24306 | 12.40318 | 38154 ft | 398 kts | 294° |
| 2026-04-29 18:33 | 46.26563 | 12.33003 | 38150 ft | 399 kts | 294° |
| 2026-04-29 18:33 | 46.28823 | 12.25682 | 38154 ft | 399 kts | 294° |
| 2026-04-29 18:34 | 46.30721 | 12.19537 | 38153 ft | 399 kts | 294° |
| 2026-04-29 18:34 | 46.33346 | 12.10997 | 38183 ft | 400 kts | 294° |
| 2026-04-29 18:35 | 46.35605 | 12.03622 | 38163 ft | 401 kts | 294° |
| 2026-04-29 18:35 | 46.37856 | 11.96243 | 38169 ft | 400 kts | 294° |
| 2026-04-29 18:36 | 46.40102 | 11.88868 | 38160 ft | 400 kts | 294° |
| 2026-04-29 18:36 | 46.42337 | 11.81472 | 38159 ft | 401 kts | 292° |
| 2026-04-29 18:37 | 46.44128 | 11.73808 | 38158 ft | 402 kts | 289° |
| 2026-04-29 18:37 | 46.45869 | 11.66173 | 38156 ft | 401 kts | 289° |
| 2026-04-29 18:38 | 46.47629 | 11.58430 | 38160 ft | 402 kts | 289° |
| 2026-04-29 18:38 | 46.49368 | 11.50766 | 38152 ft | 403 kts | 289° |
| 2026-04-29 18:39 | 46.51118 | 11.43044 | 38155 ft | 402 kts | 289° |
| 2026-04-29 18:39 | 46.52853 | 11.35321 | 38127 ft | 402 kts | 289° |
| 2026-04-29 18:40 | 46.54582 | 11.27590 | 38135 ft | 403 kts | 289° |
| 2026-04-29 18:40 | 46.56313 | 11.19832 | 38153 ft | 404 kts | 289° |
| 2026-04-29 18:41 | 46.59765 | 11.04301 | 38156 ft | 403 kts | 289° |
| 2026-04-29 18:42 | 46.61484 | 10.96531 | 38143 ft | 404 kts | 289° |
| 2026-04-29 18:42 | 46.63197 | 10.88741 | 38150 ft | 404 kts | 289° |
| 2026-04-29 18:43 | 46.64910 | 10.80937 | 38163 ft | 406 kts | 289° |
| 2026-04-29 18:43 | 46.66622 | 10.73106 | 38161 ft | 406 kts | 289° |
| 2026-04-29 18:44 | 46.68318 | 10.65331 | 38187 ft | 406 kts | 289° |
| 2026-04-29 18:44 | 46.70031 | 10.57441 | 38157 ft | 406 kts | 289° |
| 2026-04-29 18:45 | 46.71712 | 10.49644 | 38156 ft | 406 kts | 289° |
| 2026-04-29 18:45 | 46.73406 | 10.41786 | 38160 ft | 406 kts | 289° |
| 2026-04-29 18:46 | 46.75517 | 10.34168 | 38162 ft | 405 kts | 294° |
| 2026-04-29 18:46 | 46.77702 | 10.26590 | 38167 ft | 406 kts | 294° |
| 2026-04-29 18:47 | 46.79882 | 10.18990 | 38153 ft | 405 kts | 294° |
| 2026-04-29 18:47 | 46.82062 | 10.11377 | 38163 ft | 406 kts | 294° |
| 2026-04-29 18:48 | 46.84227 | 10.03779 | 38162 ft | 406 kts | 294° |
| 2026-04-29 18:48 | 46.86396 | 9.96143 | 38164 ft | 407 kts | 294° |
| 2026-04-29 18:49 | 46.88554 | 9.88508 | 38166 ft | 407 kts | 294° |
| 2026-04-29 18:49 | 46.90716 | 9.80857 | 38150 ft | 407 kts | 294° |
| 2026-04-29 18:50 | 46.92879 | 9.73202 | 38152 ft | 407 kts | 294° |
| 2026-04-29 18:50 | 46.95021 | 9.65604 | 38152 ft | 406 kts | 294° |
| 2026-04-29 18:51 | 46.97169 | 9.57940 | 38155 ft | 407 kts | 294° |
| 2026-04-29 18:51 | 46.99308 | 9.50257 | 38169 ft | 407 kts | 294° |
| 2026-04-29 18:52 | 47.01455 | 9.42550 | 38138 ft | 408 kts | 294° |
| 2026-04-29 18:52 | 47.03589 | 9.34846 | 38142 ft | 408 kts | 293° |
| 2026-04-29 18:53 | 47.05726 | 9.27120 | 38137 ft | 409 kts | 293° |
| 2026-04-29 18:53 | 47.07847 | 9.19424 | 38148 ft | 410 kts | 294° |
| 2026-04-29 18:54 | 47.09975 | 9.11664 | 38154 ft | 410 kts | 293° |
| 2026-04-29 18:54 | 47.12101 | 9.03894 | 38142 ft | 410 kts | 294° |
| 2026-04-29 18:55 | 47.14237 | 8.96077 | 38151 ft | 410 kts | 293° |
| 2026-04-29 18:55 | 47.16334 | 8.88352 | 38156 ft | 410 kts | 293° |
| 2026-04-29 18:56 | 47.18349 | 8.80521 | 38160 ft | 409 kts | 292° |
| 2026-04-29 18:56 | 47.20319 | 8.72662 | 38164 ft | 409 kts | 292° |
| 2026-04-29 18:57 | 47.22295 | 8.64811 | 38153 ft | 409 kts | 292° |
| 2026-04-29 18:57 | 47.24276 | 8.56961 | 38161 ft | 409 kts | 292° |
| 2026-04-29 18:58 | 47.26251 | 8.49114 | 38163 ft | 409 kts | 292° |
| 2026-04-29 18:58 | 47.28232 | 8.41252 | 38157 ft | 409 kts | 292° |
| 2026-04-29 18:59 | 47.30214 | 8.33380 | 38157 ft | 410 kts | 292° |
| 2026-04-29 18:59 | 47.32190 | 8.25494 | 38128 ft | 411 kts | 292° |
| 2026-04-29 19:00 | 47.34156 | 8.17567 | 38132 ft | 411 kts | 292° |
| 2026-04-29 19:00 | 47.36105 | 8.09689 | 38149 ft | 412 kts | 292° |
| 2026-04-29 19:01 | 47.38066 | 8.01748 | 38154 ft | 412 kts | 292° |
| 2026-04-29 19:01 | 47.40015 | 7.93792 | 38145 ft | 412 kts | 291° |
| 2026-04-29 19:02 | 47.41634 | 7.87168 | 38152 ft | 413 kts | 292° |
| 2026-04-29 19:02 | 47.43921 | 7.77854 | 38146 ft | 413 kts | 291° |
| 2026-04-29 19:03 | 47.45858 | 7.69864 | 38150 ft | 413 kts | 291° |
| 2026-04-29 19:03 | 47.47473 | 7.61707 | 38153 ft | 415 kts | 286° |
| 2026-04-29 19:04 | 47.48849 | 7.53428 | 38153 ft | 414 kts | 286° |
| 2026-04-29 19:04 | 47.50229 | 7.45148 | 38127 ft | 415 kts | 286° |
| 2026-04-29 19:05 | 47.51375 | 7.38262 | 38136 ft | 415 kts | 286° |
| 2026-04-29 19:05 | 47.52747 | 7.29977 | 38131 ft | 415 kts | 286° |
| 2026-04-29 19:06 | 47.54110 | 7.21687 | 38136 ft | 415 kts | 286° |
| 2026-04-29 19:07 | 47.56143 | 7.09242 | 38109 ft | 415 kts | 286° |
| 2026-04-29 19:07 | 47.57488 | 7.00936 | 38115 ft | 415 kts | 286° |
| 2026-04-29 19:08 | 47.58833 | 6.92624 | 38125 ft | 415 kts | 286° |
| 2026-04-29 19:08 | 47.60167 | 6.84358 | 38141 ft | 416 kts | 285° |
| 2026-04-29 19:09 | 47.61504 | 6.76015 | 38125 ft | 416 kts | 285° |
| 2026-04-29 19:09 | 47.62834 | 6.67669 | 38108 ft | 417 kts | 285° |
| 2026-04-29 19:10 | 47.64165 | 6.59306 | 38112 ft | 417 kts | 285° |
| 2026-04-29 19:10 | 47.65488 | 6.50926 | 38118 ft | 417 kts | 285° |
| 2026-04-29 19:11 | 47.66805 | 6.42546 | 38130 ft | 417 kts | 285° |
| 2026-04-29 19:11 | 47.68109 | 6.34150 | 38121 ft | 417 kts | 285° |
| 2026-04-29 19:12 | 47.69491 | 6.25800 | 38116 ft | 416 kts | 288° |
| 2026-04-29 19:12 | 47.71240 | 6.17614 | 38129 ft | 416 kts | 291° |
| 2026-04-29 19:13 | 47.73077 | 6.09531 | 38135 ft | 416 kts | 290° |
| 2026-04-29 19:13 | 47.74857 | 6.01349 | 38134 ft | 416 kts | 289° |
| 2026-04-29 19:14 | 47.76576 | 5.93135 | 38136 ft | 416 kts | 289° |
| 2026-04-29 19:14 | 47.78284 | 5.84908 | 38123 ft | 416 kts | 289° |
| 2026-04-29 19:15 | 47.79988 | 5.76694 | 38139 ft | 415 kts | 289° |
| 2026-04-29 19:15 | 47.81693 | 5.68471 | 38138 ft | 416 kts | 289° |
| 2026-04-29 19:16 | 47.83395 | 5.60254 | 38139 ft | 415 kts | 289° |
| 2026-04-29 19:16 | 47.85093 | 5.52049 | 38143 ft | 415 kts | 289° |
| 2026-04-29 19:17 | 47.86769 | 5.43887 | 38125 ft | 414 kts | 289° |
| 2026-04-29 19:17 | 47.88445 | 5.35675 | 38133 ft | 414 kts | 289° |
| 2026-04-29 19:18 | 47.90226 | 5.27525 | 38129 ft | 413 kts | 296° |
| 2026-04-29 19:18 | 47.93340 | 5.20433 | 38124 ft | 410 kts | 313° |
| 2026-04-29 19:19 | 47.97185 | 5.14144 | 38125 ft | 410 kts | 313° |
| 2026-04-29 19:19 | 48.01025 | 5.07825 | 38109 ft | 411 kts | 313° |
| 2026-04-29 19:20 | 48.04861 | 5.01482 | 38119 ft | 411 kts | 313° |
| 2026-04-29 19:20 | 48.08693 | 4.95117 | 38129 ft | 412 kts | 312° |
| 2026-04-29 19:21 | 48.12532 | 4.88732 | 38148 ft | 412 kts | 313° |
| 2026-04-29 19:21 | 48.16338 | 4.82369 | 38133 ft | 413 kts | 312° |
| 2026-04-29 19:22 | 48.20184 | 4.75948 | 38122 ft | 414 kts | 313° |
| 2026-04-29 19:22 | 48.24034 | 4.69508 | 38115 ft | 414 kts | 312° |
| 2026-04-29 19:23 | 48.27880 | 4.63067 | 38118 ft | 414 kts | 312° |
| 2026-04-29 19:23 | 48.31725 | 4.56610 | 38130 ft | 415 kts | 312° |
| 2026-04-29 19:24 | 48.35565 | 4.50139 | 38133 ft | 414 kts | 312° |
| 2026-04-29 19:24 | 48.39400 | 4.43655 | 38112 ft | 415 kts | 312° |
| 2026-04-29 19:25 | 48.43240 | 4.37147 | 38110 ft | 416 kts | 312° |
| 2026-04-29 19:25 | 48.47081 | 4.30617 | 38102 ft | 417 kts | 312° |
| 2026-04-29 19:26 | 48.50921 | 4.24063 | 38109 ft | 417 kts | 312° |
| 2026-04-29 19:26 | 48.54737 | 4.17543 | 38139 ft | 417 kts | 312° |
| 2026-04-29 19:27 | 48.58601 | 4.10934 | 38148 ft | 418 kts | 312° |
| 2026-04-29 19:27 | 48.62428 | 4.04384 | 38138 ft | 419 kts | 312° |
| 2026-04-29 19:28 | 48.66283 | 3.97760 | 38135 ft | 420 kts | 312° |
| 2026-04-29 19:28 | 48.70132 | 3.91112 | 38138 ft | 420 kts | 312° |
| 2026-04-29 19:29 | 48.74027 | 3.84512 | 38145 ft | 420 kts | 314° |
| 2026-04-29 19:29 | 48.78193 | 3.78293 | 38147 ft | 420 kts | 317° |
| 2026-04-29 19:30 | 48.82442 | 3.72207 | 38146 ft | 420 kts | 317° |
| 2026-04-29 19:30 | 48.86637 | 3.66046 | 38148 ft | 420 kts | 316° |
| 2026-04-29 19:31 | 48.90798 | 3.59809 | 38152 ft | 420 kts | 316° |
| 2026-04-29 19:31 | 48.94947 | 3.53552 | 38153 ft | 420 kts | 316° |
| 2026-04-29 19:32 | 48.99098 | 3.47295 | 38143 ft | 420 kts | 316° |
| 2026-04-29 19:32 | 49.03258 | 3.41026 | 38158 ft | 420 kts | 316° |
| 2026-04-29 19:33 | 49.07389 | 3.34797 | 38150 ft | 421 kts | 316° |
| 2026-04-29 19:33 | 49.11518 | 3.28540 | 38146 ft | 422 kts | 316° |
| 2026-04-29 19:34 | 49.15685 | 3.22201 | 38149 ft | 423 kts | 316° |
| 2026-04-29 19:34 | 49.19855 | 3.15857 | 38150 ft | 423 kts | 316° |
| 2026-04-29 19:35 | 49.24021 | 3.09496 | 38149 ft | 423 kts | 315° |
| 2026-04-29 19:35 | 49.28190 | 3.03117 | 38155 ft | 424 kts | 316° |
| 2026-04-29 19:36 | 49.32362 | 2.96717 | 38169 ft | 424 kts | 316° |
| 2026-04-29 19:36 | 49.36529 | 2.90284 | 38169 ft | 425 kts | 315° |
| 2026-04-29 19:37 | 49.40693 | 2.83847 | 38168 ft | 425 kts | 315° |
| 2026-04-29 19:37 | 49.44857 | 2.77399 | 38167 ft | 425 kts | 315° |
| 2026-04-29 19:38 | 49.49002 | 2.70988 | 38161 ft | 426 kts | 315° |
| 2026-04-29 19:38 | 49.53207 | 2.64463 | 38156 ft | 427 kts | 315° |
| 2026-04-29 19:39 | 49.57352 | 2.57992 | 38155 ft | 428 kts | 315° |
| 2026-04-29 19:39 | 49.61505 | 2.51429 | 38168 ft | 428 kts | 313° |
| 2026-04-29 19:40 | 49.65415 | 2.44503 | 38169 ft | 428 kts | 310° |
| 2026-04-29 19:40 | 49.69197 | 2.37387 | 38170 ft | 429 kts | 310° |
| 2026-04-29 19:41 | 49.73011 | 2.30295 | 38170 ft | 429 kts | 311° |
| 2026-04-29 19:41 | 49.76878 | 2.23228 | 38157 ft | 431 kts | 311° |
| 2026-04-29 19:41 | 49.78819 | 2.19695 | 38033 ft | 433 kts | 311° |
| 2026-04-29 19:42 | 49.80764 | 2.16147 | 37750 ft | 432 kts | 311° |
| 2026-04-29 19:42 | 49.84622 | 2.09061 | 37205 ft | 430 kts | 310° |
| 2026-04-29 19:42 | 49.86553 | 2.05502 | 36946 ft | 433 kts | 310° |
| 2026-04-29 19:43 | 49.88500 | 2.01916 | 36687 ft | 435 kts | 310° |
| 2026-04-29 19:43 | 49.90446 | 1.98327 | 36425 ft | 435 kts | 311° |
| 2026-04-29 19:43 | 49.92392 | 1.94730 | 35833 ft | 436 kts | 310° |
| 2026-04-29 19:43 | 49.94351 | 1.91101 | 35084 ft | 439 kts | 310° |
| 2026-04-29 19:44 | 49.96322 | 1.87444 | 34302 ft | 444 kts | 311° |
| 2026-04-29 19:44 | 49.98317 | 1.83745 | 33381 ft | 451 kts | 311° |
| 2026-04-29 19:44 | 50.00342 | 1.79984 | 32506 ft | 455 kts | 311° |
| 2026-04-29 19:44 | 50.02375 | 1.76192 | 31711 ft | 457 kts | 311° |
| 2026-04-29 19:45 | 50.04391 | 1.72412 | 31244 ft | 452 kts | 311° |
| 2026-04-29 19:45 | 50.06372 | 1.68714 | 30683 ft | 450 kts | 314° |
| 2026-04-29 19:45 | 50.08585 | 1.65317 | 30120 ft | 444 kts | 322° |
| 2026-04-29 19:45 | 50.10914 | 1.62183 | 29531 ft | 441 kts | 321° |
| 2026-04-29 19:46 | 50.13223 | 1.59065 | 28993 ft | 436 kts | 321° |
| 2026-04-29 19:46 | 50.15498 | 1.55980 | 28463 ft | 432 kts | 321° |
| 2026-04-29 19:46 | 50.17759 | 1.52913 | 27942 ft | 428 kts | 321° |
| 2026-04-29 19:46 | 50.19997 | 1.49867 | 27402 ft | 425 kts | 321° |
| 2026-04-29 19:47 | 50.22216 | 1.46838 | 26885 ft | 423 kts | 321° |
| 2026-04-29 19:47 | 50.24430 | 1.43815 | 26370 ft | 421 kts | 321° |
| 2026-04-29 19:47 | 50.26630 | 1.40801 | 25864 ft | 419 kts | 321° |
| 2026-04-29 19:47 | 50.28815 | 1.37802 | 25371 ft | 418 kts | 320° |
| 2026-04-29 19:48 | 50.30865 | 1.34990 | 24916 ft | 417 kts | 321° |
| 2026-04-29 19:48 | 50.32338 | 1.32972 | 24602 ft | 416 kts | 320° |
| 2026-04-29 19:48 | 50.35222 | 1.29017 | 23978 ft | 416 kts | 320° |
| 2026-04-29 19:48 | 50.37393 | 1.26036 | 23494 ft | 415 kts | 320° |
| 2026-04-29 19:49 | 50.39554 | 1.23062 | 23039 ft | 412 kts | 320° |
| 2026-04-29 19:49 | 50.41696 | 1.20103 | 22583 ft | 409 kts | 320° |
| 2026-04-29 19:49 | 50.43823 | 1.17165 | 22142 ft | 406 kts | 321° |
| 2026-04-29 19:49 | 50.45932 | 1.14248 | 21677 ft | 403 kts | 320° |
| 2026-04-29 19:50 | 50.48031 | 1.11339 | 21230 ft | 400 kts | 321° |
| 2026-04-29 19:50 | 50.50113 | 1.08450 | 20755 ft | 398 kts | 321° |
| 2026-04-29 19:50 | 50.52103 | 1.05521 | 20303 ft | 397 kts | 315° |
| 2026-04-29 19:50 | 50.53985 | 1.02354 | 19821 ft | 396 kts | 315° |
| 2026-04-29 19:51 | 50.55860 | 0.99193 | 19333 ft | 394 kts | 315° |
| 2026-04-29 19:51 | 50.57726 | 0.96053 | 18844 ft | 392 kts | 315° |
| 2026-04-29 19:51 | 50.59582 | 0.92924 | 18328 ft | 390 kts | 315° |
| 2026-04-29 19:51 | 50.61431 | 0.89805 | 17811 ft | 388 kts | 315° |
| 2026-04-29 19:52 | 50.63264 | 0.86708 | 17326 ft | 385 kts | 315° |
| 2026-04-29 19:52 | 50.65080 | 0.83628 | 16824 ft | 382 kts | 315° |
| 2026-04-29 19:52 | 50.66884 | 0.80565 | 16345 ft | 380 kts | 315° |
| 2026-04-29 19:52 | 50.68084 | 0.78481 | 15971 ft | 379 kts | 313° |
| 2026-04-29 19:53 | 50.69793 | 0.75321 | 15105 ft | 389 kts | 310° |
| 2026-04-29 19:53 | 50.71508 | 0.71969 | 14285 ft | 396 kts | 309° |
| 2026-04-29 19:53 | 50.73203 | 0.68560 | 13765 ft | 390 kts | 309° |
| 2026-04-29 19:53 | 50.74851 | 0.65227 | 12794 ft | 383 kts | 309° |
| 2026-04-29 19:54 | 50.78086 | 0.58745 | 11420 ft | 358 kts | 310° |
| 2026-04-29 19:54 | 50.79583 | 0.55779 | 11263 ft | 334 kts | 310° |
| 2026-04-29 19:54 | 50.81010 | 0.52962 | 10850 ft | 323 kts | 310° |
| 2026-04-29 19:55 | 50.82392 | 0.50248 | 10592 ft | 315 kts | 310° |
| 2026-04-29 19:55 | 50.83769 | 0.47545 | 10364 ft | 314 kts | 310° |
| 2026-04-29 19:55 | 50.86764 | 0.41651 | 9560 ft | 315 kts | 310° |
| 2026-04-29 19:56 | 50.88134 | 0.38938 | 9254 ft | 313 kts | 310° |
| 2026-04-29 19:56 | 50.90843 | 0.33552 | 9276 ft | 310 kts | 310° |
| 2026-04-29 19:56 | 50.92182 | 0.30889 | 9281 ft | 310 kts | 310° |
| 2026-04-29 19:57 | 50.93513 | 0.28196 | 9278 ft | 310 kts | 306° |
| 2026-04-29 19:57 | 50.94287 | 0.26292 | 9287 ft | 311 kts | 302° |
| 2026-04-29 19:57 | 50.95765 | 0.22352 | 9289 ft | 311 kts | 301° |
| 2026-04-29 19:57 | 50.96862 | 0.19396 | 9286 ft | 311 kts | 301° |
| 2026-04-29 19:58 | 50.97958 | 0.16436 | 9292 ft | 311 kts | 301° |
| 2026-04-29 19:58 | 50.99050 | 0.13482 | 9287 ft | 311 kts | 301° |
| 2026-04-29 19:58 | 51.00142 | 0.10528 | 9090 ft | 310 kts | 301° |
| 2026-04-29 19:58 | 51.01062 | 0.07455 | 8744 ft | 308 kts | 284° |
| 2026-04-29 19:59 | 51.01340 | 0.04149 | 8389 ft | 306 kts | 272° |
| 2026-04-29 19:59 | 51.01461 | 0.00733 | 8027 ft | 305 kts | 271° |
| 2026-04-29 19:59 | 51.01565 | -0.02589 | 7689 ft | 305 kts | 271° |
| 2026-04-29 19:59 | 51.01679 | -0.05980 | 7381 ft | 303 kts | 271° |
| 2026-04-29 20:00 | 51.01794 | -0.09291 | 7245 ft | 295 kts | 271° |
| 2026-04-29 20:00 | 51.01906 | -0.12463 | 7119 ft | 288 kts | 271° |
| 2026-04-29 20:00 | 51.02015 | -0.15586 | 7007 ft | 279 kts | 271° |
| 2026-04-29 20:00 | 51.02121 | -0.18622 | 6847 ft | 272 kts | 271° |